Time;durP1;ratioP1;P1;durP2;ratioP2;P2;SDS_P1;SDS_P2;PMS_P1;PMS_P2;Temp;Humidity;BMP_temperature;BMP_pressure;BME280_temperature;BME280_humidity;BME280_pressure;Samples;Min_cycle;Max_cycle;Signal;HPM_P1;HPM_P2
2023/01/20 00:04:39;;;;;;;26.63;17.90;;;;;;;2.98;67.13;99957.22;20954619;28;20224;-89
2023/01/20 00:14:41;;;;;;;29.93;17.20;;;;;;;3.05;66.73;99963.31;20950319;28;20563;-89
2023/01/20 00:24:43;;;;;;;27.70;17.63;;;;;;;3.18;66.86;99961.94;20932333;28;20355;-88
2023/01/20 00:34:45;;;;;;;27.63;18.13;;;;;;;3.05;66.29;99968.84;20936890;28;20269;-88
2023/01/20 00:44:48;;;;;;;29.53;18.10;;;;;;;2.43;67.27;99974.50;20936515;28;20568;-90
2023/01/20 00:54:50;;;;;;;26.97;17.70;;;;;;;3.16;65.58;99980.81;20936187;28;20212;-90
2023/01/20 01:04:52;;;;;;;26.17;17.33;;;;;;;2.12;68.23;99993.75;20935572;28;20208;-89
2023/01/20 01:14:55;;;;;;;27.13;17.90;;;;;;;3.04;65.08;99999.63;20939905;28;20223;-89
2023/01/20 01:24:58;;;;;;;27.60;18.43;;;;;;;2.47;68.46;100008.84;20932152;28;20195;-89
2023/01/20 01:35:00;;;;;;;28.87;18.23;;;;;;;2.77;68.62;100017.28;20945850;28;20228;-88
2023/01/20 01:45:09;;;;;;;29.33;19.40;;;;;;;2.71;67.51;100018.38;20966930;28;20184;-88
2023/01/20 01:55:13;;;;;;;29.60;20.47;;;;;;;2.83;65.51;100032.81;20953671;28;20219;-88
2023/01/20 02:05:16;;;;;;;29.17;19.37;;;;;;;3.09;64.50;100042.03;20956670;28;20220;-88
2023/01/20 02:15:25;;;;;;;26.07;17.70;;;;;;;3.29;63.05;100032.94;20954926;28;20521;-88
2023/01/20 02:25:55;;;;;;;23.83;16.33;;;;;;;3.26;63.01;100041.78;20964074;28;20192;-88
2023/01/20 02:36:02;;;;;;;27.57;18.80;;;;;;;2.07;66.43;100062.84;20958085;28;20223;-88
2023/01/20 02:46:23;;;;;;;25.83;16.87;;;;;;;2.87;63.96;100055.25;20948401;28;20210;-90
2023/01/20 02:56:27;;;;;;;27.63;18.37;;;;;;;3.41;63.32;100065.97;20935153;28;20285;-90
2023/01/20 03:06:37;;;;;;;29.60;19.47;;;;;;;3.33;63.54;100069.28;20923367;28;20293;-90
2023/01/20 03:16:39;;;;;;;30.47;19.00;;;;;;;3.55;62.47;100067.13;20946540;28;20211;-87
2023/01/20 03:26:42;;;;;;;28.97;18.07;;;;;;;2.80;66.47;100087.91;20929449;28;20196;-88
2023/01/20 03:36:44;;;;;;;24.63;17.30;;;;;;;2.95;66.71;100101.81;20941580;28;20224;-89
2023/01/20 03:46:52;;;;;;;25.50;17.67;;;;;;;2.85;68.51;100102.63;20945887;28;20247;-89
2023/01/20 03:57:03;;;;;;;24.90;16.17;;;;;;;3.50;64.61;100100.38;20971028;28;20216;-88
2023/01/20 04:07:07;;;;;;;24.77;15.80;;;;;;;3.15;65.86;100112.16;20990751;28;20700;-90
2023/01/20 04:17:10;;;;;;;24.27;15.90;;;;;;;2.84;65.64;100109.25;20960941;28;20216;-88
2023/01/20 04:27:12;;;;;;;24.23;16.03;;;;;;;3.20;65.38;100118.53;20993238;28;20505;-89
2023/01/20 04:37:14;;;;;;;22.90;13.60;;;;;;;2.78;66.67;100140.81;20923922;28;20265;-89
2023/01/20 04:47:16;;;;;;;19.87;12.73;;;;;;;3.07;64.95;100138.44;20926970;28;20588;-88
2023/01/20 04:57:18;;;;;;;18.03;11.47;;;;;;;2.97;63.65;100138.41;20939370;28;20250;-88
2023/01/20 05:07:21;;;;;;;18.87;12.33;;;;;;;2.93;63.94;100153.06;20904976;28;20285;-88
2023/01/20 05:17:23;;;;;;;17.50;12.87;;;;;;;2.92;64.27;100165.28;20906478;28;20544;-87
2023/01/20 05:27:25;;;;;;;18.43;9.97;;;;;;;2.41;65.31;100162.97;20905784;28;20222;-90
2023/01/20 05:37:27;;;;;;;16.93;11.00;;;;;;;2.11;65.81;100180.19;20914946;28;20228;-90
2023/01/20 05:47:30;;;;;;;15.83;10.07;;;;;;;2.84;63.33;100186.81;20923972;28;20191;-89
2023/01/20 05:57:32;;;;;;;14.53;10.07;;;;;;;3.16;63.09;100196.97;20939026;28;20221;-89
2023/01/20 06:07:35;;;;;;;15.17;9.33;;;;;;;3.01;62.25;100199.66;20943893;28;20211;-88
2023/01/20 06:17:37;;;;;;;14.77;10.17;;;;;;;2.80;63.21;100205.06;20933887;28;20227;-89
2023/01/20 06:27:40;;;;;;;15.77;10.10;;;;;;;3.57;61.91;100215.44;20939667;28;20191;-88
2023/01/20 06:37:42;;;;;;;16.60;11.43;;;;;;;2.62;65.51;100224.91;20967281;28;20222;-88
2023/01/20 06:47:49;;;;;;;20.60;13.30;;;;;;;2.96;64.63;100230.94;20995869;28;20577;-89
2023/01/20 06:57:51;;;;;;;19.00;11.67;;;;;;;2.80;65.04;100234.69;20978551;28;20220;-89
2023/01/20 07:07:53;;;;;;;22.07;13.83;;;;;;;2.87;65.44;100252.78;20957833;28;20232;-89
2023/01/20 07:17:55;;;;;;;16.67;11.50;;;;;;;2.59;65.97;100264.19;20965241;28;20250;-88
2023/01/20 07:27:57;;;;;;;19.60;12.07;;;;;;;3.32;62.77;100267.19;20970044;28;20195;-88
2023/01/20 07:38:00;;;;;;;16.77;10.50;;;;;;;3.47;61.13;100270.88;20967230;28;20219;-89
2023/01/20 07:48:02;;;;;;;17.53;10.83;;;;;;;3.70;60.04;100277.09;20958862;28;20195;-88
2023/01/20 07:58:05;;;;;;;17.50;10.73;;;;;;;3.27;62.27;100304.03;20937327;28;20294;-89
2023/01/20 08:08:07;;;;;;;19.33;12.67;;;;;;;3.49;62.00;100301.94;20939495;28;20223;-89
2023/01/20 08:18:09;;;;;;;15.67;11.77;;;;;;;3.05;63.21;100314.41;20987840;28;20660;-89
2023/01/20 08:28:11;;;;;;;21.07;13.10;;;;;;;3.50;62.21;100320.25;20911226;28;20197;-89
2023/01/20 08:38:14;;;;;;;17.83;12.87;;;;;;;3.24;62.22;100332.25;20950249;28;20242;-89
2023/01/20 08:48:18;;;;;;;20.80;13.73;;;;;;;3.91;59.59;100337.09;20916821;28;20252;-89
2023/01/20 08:58:20;;;;;;;19.50;13.83;;;;;;;3.62;60.89;100358.03;20974225;28;20238;-88
2023/01/20 09:08:26;;;;;;;19.20;12.93;;;;;;;3.49;61.28;100354.63;20956123;28;20222;-89
2023/01/20 09:18:33;;;;;;;16.07;11.77;;;;;;;3.41;58.81;100366.25;20948843;28;20498;-89
2023/01/20 09:28:35;;;;;;;15.20;10.97;;;;;;;4.15;56.64;100370.78;20899602;28;20245;-89
2023/01/20 09:59:43;;;;;;;11.20;7.67;;;;;;;3.48;59.29;100400.09;20946720;28;20226;-89
2023/01/20 10:09:53;;;;;;;10.27;8.13;;;;;;;3.40;59.17;100403.38;20934985;28;20227;-89
2023/01/20 10:20:03;;;;;;;10.30;7.87;;;;;;;2.72;61.42;100412.44;20933383;28;20215;-89
2023/01/20 10:30:10;;;;;;;12.37;8.17;;;;;;;3.23;59.96;100416.53;20918287;28;20559;-89
2023/01/20 10:40:18;;;;;;;9.70;7.00;;;;;;;3.74;57.85;100403.03;20933784;28;20211;-89
2023/01/20 10:50:32;;;;;;;9.80;7.73;;;;;;;4.06;57.10;100392.69;20948267;28;20200;-89
2023/01/20 11:00:35;;;;;;;9.00;6.43;;;;;;;3.58;57.35;100394.63;20930920;28;20200;-89
2023/01/20 11:10:37;;;;;;;9.27;7.30;;;;;;;3.79;55.77;100390.03;20913647;28;20285;-89
2023/01/20 11:21:01;;;;;;;10.93;6.30;;;;;;;4.31;54.62;100398.31;20931126;28;20195;-90
2023/01/20 11:31:04;;;;;;;10.40;5.57;;;;;;;4.10;55.08;100406.81;20907856;28;20219;-89
2023/01/20 11:41:24;;;;;;;5.67;4.77;;;;;;;3.57;56.79;100417.91;20957067;28;20215;-89
2023/01/20 11:51:26;;;;;;;7.73;4.87;;;;;;;4.06;54.96;100409.34;20908611;28;20216;-89
2023/01/20 12:01:30;;;;;;;6.70;5.00;;;;;;;4.18;55.14;100409.09;20941043;28;20200;-88
2023/01/20 12:11:52;;;;;;;7.87;4.30;;;;;;;4.13;53.99;100407.13;20924523;28;20242;-89
2023/01/20 12:21:58;;;;;;;5.77;3.80;;;;;;;4.31;54.08;100414.16;20940267;28;20199;-90
2023/01/20 12:32:00;;;;;;;4.97;3.60;;;;;;;4.16;53.76;100422.41;20912344;28;20250;-89
2023/01/20 12:42:21;;;;;;;6.37;4.27;;;;;;;4.95;52.86;100409.03;21001128;28;20265;-89
2023/01/20 12:52:23;;;;;;;5.63;3.70;;;;;;;4.59;53.93;100426.75;20950729;28;20255;-89
2023/01/20 13:02:44;;;;;;;6.50;3.50;;;;;;;3.91;54.75;100437.00;20923654;28;20509;-89
2023/01/20 13:12:55;;;;;;;4.53;3.77;;;;;;;4.25;54.58;100441.06;20968751;28;20300;-88
2023/01/20 13:23:00;;;;;;;8.63;3.73;;;;;;;4.05;52.99;100440.97;20950758;28;20277;-90
2023/01/20 13:33:04;;;;;;;7.87;4.60;;;;;;;4.58;54.16;100452.84;20926787;28;20304;-89
2023/01/20 13:43:22;;;;;;;5.80;3.80;;;;;;;4.47;53.07;100465.03;20924089;28;20261;-88
2023/01/20 13:53:27;;;;;;;5.57;4.03;;;;;;;4.15;54.95;100479.88;21002083;28;20627;-89
2023/01/20 14:04:03;;;;;;;5.23;4.17;;;;;;;4.73;53.11;100477.91;20950362;28;20223;-90
2023/01/20 14:14:05;;;;;;;6.17;3.90;;;;;;;4.34;51.91;100484.97;20928227;28;20211;-91
2023/01/20 14:24:29;;;;;;;5.33;3.93;;;;;;;4.82;51.91;100498.50;20923399;28;20540;-91
2023/01/20 14:34:32;;;;;;;5.53;3.77;;;;;;;4.98;50.89;100511.34;20947888;28;20686;-88
2023/01/20 14:44:34;;;;;;;6.10;3.63;;;;;;;4.27;53.14;100541.56;20939193;28;20200;-91
2023/01/20 14:54:45;;;;;;;6.60;4.30;;;;;;;4.29;53.54;100555.19;20935451;28;20254;-88
2023/01/20 15:04:49;;;;;;;8.23;4.40;;;;;;;4.76;53.36;100569.03;20970001;28;20219;-89
2023/01/20 15:14:59;;;;;;;7.57;4.87;;;;;;;4.68;52.83;100580.69;20966746;28;20238;-90
2023/01/20 15:25:06;;;;;;;7.10;4.43;;;;;;;4.99;51.14;100598.34;20952601;28;20199;-87
2023/01/20 15:35:18;;;;;;;8.07;4.80;;;;;;;4.88;51.87;100605.78;20984068;28;21592;-86
2023/01/20 15:45:21;;;;;;;8.77;5.20;;;;;;;4.77;51.87;100617.97;20986557;27;20478;-86
2023/01/20 15:55:23;;;;;;;5.83;4.43;;;;;;;4.71;53.06;100632.94;20913930;28;20219;-87
2023/01/20 16:05:26;;;;;;;6.90;5.10;;;;;;;3.91;55.70;100653.44;20923208;28;20269;-87
2023/01/20 16:15:34;;;;;;;7.17;4.40;;;;;;;3.99;54.10;100661.28;20920569;28;20572;-88
2023/01/20 16:25:38;;;;;;;47.20;29.63;;;;;;;4.17;55.21;100674.78;20916111;28;20192;-93
2023/01/20 16:35:40;;;;;;;16.77;11.60;;;;;;;3.67;53.51;100702.88;20963573;28;20280;-86
2023/01/20 16:45:44;;;;;;;65.67;38.63;;;;;;;3.76;53.00;100714.31;20895668;28;20608;-88
2023/01/20 16:55:47;;;;;;;24.50;17.80;;;;;;;3.64;53.24;100730.28;20933047;28;20211;-92
2023/01/20 17:05:50;;;;;;;14.37;10.90;;;;;;;3.56;53.39;100745.47;20919524;28;20224;-90
2023/01/20 17:15:54;;;;;;;10.87;6.50;;;;;;;3.37;54.94;100756.03;20896672;28;20219;-91
2023/01/20 17:25:57;;;;;;;10.87;6.77;;;;;;;2.84;56.00;100779.63;20923416;28;20188;-84
2023/01/20 17:36:01;;;;;;;11.07;7.30;;;;;;;3.03;55.28;100796.00;20932324;28;20239;-86
2023/01/20 17:46:17;;;;;;;9.33;6.47;;;;;;;2.99;55.15;100815.03;20930793;28;20550;-83
2023/01/20 17:56:21;;;;;;;7.57;6.03;;;;;;;2.84;55.80;100848.88;20911310;28;20215;-82
2023/01/20 18:06:25;;;;;;;7.77;6.40;;;;;;;2.64;57.31;100854.09;20961459;28;20246;-84
2023/01/20 18:16:29;;;;;;;7.30;6.37;;;;;;;2.77;55.63;100864.84;20926852;28;20242;-87
2023/01/20 18:26:33;;;;;;;8.57;7.10;;;;;;;2.94;57.30;100870.38;20919966;28;20196;-88
2023/01/20 18:36:37;;;;;;;11.37;8.97;;;;;;;2.70;55.99;100894.63;20974602;27;20285;-84
2023/01/20 18:46:40;;;;;;;12.77;8.60;;;;;;;2.68;57.11;100899.56;20932191;28;20218;-84
2023/01/20 18:56:42;;;;;;;12.00;9.50;;;;;;;2.93;57.19;100920.50;20905861;28;20220;-88
2023/01/20 19:06:45;;;;;;;13.90;9.40;;;;;;;2.48;58.46;100926.88;20915326;28;20293;-85
2023/01/20 19:16:50;;;;;;;17.20;11.57;;;;;;;2.71;57.22;100937.00;20906391;28;20223;-86
2023/01/20 19:26:52;;;;;;;15.60;10.63;;;;;;;2.31;58.51;100959.19;20899195;28;20200;-85
2023/01/20 19:36:55;;;;;;;14.37;10.60;;;;;;;1.93;60.17;100970.81;20906676;28;20251;-89
2023/01/20 19:47:02;;;;;;;19.07;11.83;;;;;;;2.22;60.02;100989.19;20908961;28;20230;-83
2023/01/20 19:57:05;;;;;;;18.00;12.13;;;;;;;2.37;61.12;101002.53;20891599;28;20222;-89
2023/01/20 20:07:07;;;;;;;17.90;13.07;;;;;;;2.40;59.47;101016.69;20932932;28;20215;-82
2023/01/20 20:17:10;;;;;;;17.73;12.70;;;;;;;2.19;60.28;101028.41;20935592;28;20269;-85
2023/01/20 20:27:12;;;;;;;21.40;14.30;;;;;;;2.10;60.32;101046.47;20896229;28;20524;-84
2023/01/20 20:37:14;;;;;;;22.90;14.93;;;;;;;2.13;60.25;101065.38;20915524;28;20611;-82
2023/01/20 20:47:17;;;;;;;21.53;14.67;;;;;;;1.53;62.06;101084.06;20891237;28;20333;-90
2023/01/20 20:57:19;;;;;;;19.30;14.60;;;;;;;1.50;62.07;101093.69;20920836;28;20231;-85
2023/01/20 21:07:21;;;;;;;20.80;15.33;;;;;;;0.88;63.41;101117.06;20895388;28;20289;-87
2023/01/20 21:17:24;;;;;;;19.53;14.70;;;;;;;1.13;63.71;101133.56;20918653;28;21188;-83
2023/01/20 21:27:29;;;;;;;20.53;14.40;;;;;;;1.47;61.28;101148.63;20931105;28;20199;-92
2023/01/20 21:37:32;;;;;;;21.60;15.03;;;;;;;1.39;62.65;101156.16;20932474;28;20239;-86
2023/01/20 21:47:34;;;;;;;24.17;14.80;;;;;;;1.18;63.34;101164.13;20902641;28;20188;-85
2023/01/20 21:57:37;;;;;;;20.27;15.30;;;;;;;0.79;63.36;101171.78;20943551;28;20208;-83
2023/01/20 22:07:39;;;;;;;20.53;13.83;;;;;;;0.58;64.66;101191.56;20945386;28;20227;-83
2023/01/20 22:17:42;;;;;;;20.20;15.10;;;;;;;0.94;63.65;101207.34;20930198;28;20228;-84
2023/01/20 22:27:46;;;;;;;20.27;14.17;;;;;;;0.96;62.63;101236.44;20909594;28;20265;-86
2023/01/20 22:37:49;;;;;;;20.67;14.73;;;;;;;0.68;65.08;101264.50;20973662;28;20223;-84
2023/01/20 22:47:51;;;;;;;20.87;15.27;;;;;;;0.99;62.46;101271.00;20948020;28;20188;-87
2023/01/20 22:57:53;;;;;;;21.40;14.80;;;;;;;0.96;62.43;101272.34;20932859;28;20223;-87
2023/01/20 23:07:55;;;;;;;22.37;14.90;;;;;;;0.41;63.27;101287.91;20931624;28;20224;-84
2023/01/20 23:17:58;;;;;;;22.43;15.57;;;;;;;0.32;65.40;101297.53;20921634;28;20528;-86
2023/01/20 23:28:00;;;;;;;24.47;16.13;;;;;;;0.27;64.23;101312.00;20906465;28;20223;-85
2023/01/20 23:38:03;;;;;;;23.80;15.87;;;;;;;0.88;62.20;101327.84;20923877;28;20225;-87
2023/01/20 23:48:06;;;;;;;24.17;15.40;;;;;;;0.29;64.84;101337.44;20917083;28;20196;-86
2023/01/20 23:58:08;;;;;;;19.03;14.70;;;;;;;0.65;63.40;101350.53;20920185;28;20215;-89
